createdAt,value
2022-08-12T00:00:48.301Z,-25.5
2022-08-12T00:02:49.276Z,-25.6
2022-08-12T00:04:51.098Z,-25.7
2022-08-12T00:06:52.997Z,-25.6
2022-08-12T00:08:53.922Z,-25.6
2022-08-12T00:12:56.573Z,-25.5
2022-08-12T00:14:58.211Z,-25.4
2022-08-12T00:17:09.047Z,-25.8
2022-08-12T00:19:01.503Z,-25.5
2022-08-12T00:19:45.287Z,-25.3
2022-08-12T00:21:46.662Z,-25.6
2022-08-12T00:23:48.485Z,-25.7
2022-08-12T00:25:51.299Z,-25.6
2022-08-12T00:27:51.095Z,-25.6
2022-08-12T00:29:52.391Z,-25.5
2022-08-12T00:31:53.778Z,-25.7
2022-08-12T00:33:55.277Z,-25.5
2022-08-12T00:35:56.558Z,-25.6
2022-08-12T00:37:58.137Z,-25.6
2022-08-12T00:39:59.601Z,-25.6
2022-08-12T00:44:02.529Z,-25.6
2022-08-12T00:48:05.119Z,-25.7
2022-08-12T00:50:06.169Z,-25.4
2022-08-12T00:52:07.362Z,-25.8
2022-08-12T00:54:09.191Z,-25.7
2022-08-12T00:56:10.588Z,-25.5
2022-08-12T00:58:11.806Z,-25.6
2022-08-12T01:00:12.744Z,-25.5
2022-08-12T01:02:13.935Z,-25.6
2022-08-12T01:04:15.000Z,-25.6
2022-08-12T01:06:16.205Z,-25.6
2022-08-12T01:08:17.587Z,-25.7
2022-08-12T01:10:18.678Z,-25.6
2022-08-12T01:12:20.335Z,-25.8
2022-08-12T01:14:21.684Z,-25.8
2022-08-12T01:18:24.383Z,-25.4
2022-08-12T01:20:25.744Z,-25.5
2022-08-12T01:22:26.814Z,-25.6
2022-08-12T01:24:31.144Z,-25.5
2022-08-12T01:30:32.672Z,-25.5
2022-08-12T01:32:34.337Z,-25.7
2022-08-12T01:34:37.332Z,-25.4
2022-08-12T01:36:37.293Z,-25.6
2022-08-12T01:38:38.985Z,-25.8
2022-08-12T01:40:43.739Z,-25.5
2022-08-12T01:42:41.669Z,-25.6
2022-08-12T01:44:42.770Z,-25.8
2022-08-12T01:46:44.470Z,-25.9
2022-08-12T01:48:45.759Z,-25.5
2022-08-12T01:50:47.252Z,-25.5
2022-08-12T01:52:48.240Z,-25.8
2022-08-12T01:54:49.575Z,-25.8
2022-08-12T01:56:50.631Z,-25.6
2022-08-12T01:58:51.625Z,-25.5
2022-08-12T02:00:54.746Z,-25.6
2022-08-12T02:02:53.570Z,-25.8
2022-08-12T02:04:55.472Z,-25.7
2022-08-12T02:06:56.982Z,-25.6
2022-08-12T02:08:58.272Z,-25.7
2022-08-12T02:10:59.537Z,-25.7
2022-08-12T02:13:00.783Z,-25.7
2022-08-12T02:15:02.438Z,-25.7
2022-08-12T02:17:04.337Z,-25.5
2022-08-12T02:19:13.270Z,-25.9
2022-08-12T02:21:07.522Z,-25.6
2022-08-12T02:27:11.833Z,-25.4
2022-08-12T02:29:13.770Z,-25.8
2022-08-12T02:31:15.537Z,-25.6
2022-08-12T02:33:16.877Z,-25.6
2022-08-12T02:35:18.653Z,-25.5
2022-08-12T02:37:20.272Z,-25.9
2022-08-12T02:39:21.796Z,-25.6
2022-08-12T02:43:24.649Z,-25.6
2022-08-12T02:45:26.450Z,-25.6
2022-08-12T02:47:58.949Z,-25.8
2022-08-12T02:49:29.216Z,-25.4
2022-08-12T02:53:32.600Z,-25.6
2022-08-12T02:55:35.079Z,-25.6
2022-08-12T03:01:47.407Z,-25.9
2022-08-12T03:03:40.136Z,-25.7
2022-08-12T03:05:44.516Z,-25.7
2022-08-12T03:07:56.648Z,-25.6
2022-08-12T03:10:03.912Z,-25.5
2022-08-12T03:11:48.655Z,-25.6
2022-08-12T03:13:47.276Z,-25.9
2022-08-12T03:15:48.212Z,-25.7
2022-08-12T03:20:08.997Z,-25.5
2022-08-12T03:21:52.381Z,-25.4
2022-08-12T03:23:52.855Z,-25.9
2022-08-12T03:25:54.109Z,-25.8
2022-08-12T03:27:55.934Z,-25.6
2022-08-12T03:31:57.890Z,-25.6
2022-08-12T03:34:01.103Z,-25.7
2022-08-12T03:36:00.434Z,-25.7
2022-08-12T03:38:01.609Z,-25.6
2022-08-12T03:44:06.169Z,-25.9
2022-08-12T03:46:07.459Z,-25.8
2022-08-12T03:48:09.138Z,-25.7
2022-08-12T03:50:10.686Z,-25.7
2022-08-12T03:52:11.928Z,-25.7
2022-08-12T03:56:14.594Z,-25.7
2022-08-12T04:00:23.871Z,-25.6
2022-08-12T04:02:18.795Z,-25.5
2022-08-12T04:04:20.318Z,-25.5
2022-08-12T04:06:34.689Z,-25.3
2022-08-12T04:08:23.475Z,-25.7
2022-08-12T04:10:25.384Z,-25.5
2022-08-12T04:12:26.434Z,-25.4
2022-08-12T04:14:27.802Z,-25.6
2022-08-12T04:16:29.254Z,-25.7
2022-08-12T04:18:30.979Z,-25.5
2022-08-12T04:20:31.973Z,-25.7
2022-08-12T04:22:33.083Z,-25.5
2022-08-12T04:24:35.662Z,-25.6
2022-08-12T04:26:36.615Z,-25.8
2022-08-12T04:28:37.983Z,-25.4
2022-08-12T04:30:39.260Z,-25.6
2022-08-12T04:32:44.364Z,-25.6
2022-08-12T04:34:42.350Z,-25.8
2022-08-12T04:36:43.833Z,-25.8
2022-08-12T04:38:45.399Z,-25.6
2022-08-12T04:40:46.673Z,-25.3
2022-08-12T04:42:48.084Z,-25.9
2022-08-12T04:46:50.801Z,-25.4
2022-08-12T04:48:51.908Z,-25.6
2022-08-12T04:50:53.797Z,-25.8
2022-08-12T04:52:54.862Z,-25.5
2022-08-12T04:57:02.976Z,-25.6
2022-08-12T04:58:59.255Z,-25.9
2022-08-12T05:01:00.396Z,-25.6
2022-08-12T05:03:02.347Z,-25.7
2022-08-12T05:05:03.556Z,-22.9
2022-08-12T05:07:05.015Z,-18.1
2022-08-12T05:09:10.817Z,-15.5
2022-08-12T05:11:08.053Z,-12.6
2022-08-12T05:13:08.970Z,-10.1
2022-08-12T05:15:11.375Z,-7.6
2022-08-12T05:17:12.410Z,-7.7
2022-08-12T05:19:18.533Z,-15.1
2022-08-12T05:23:16.092Z,-13.8
2022-08-12T05:25:18.422Z,-18.1
2022-08-12T05:27:18.848Z,-15.4
2022-08-12T05:30:06.107Z,-4.8
2022-08-12T05:33:23.426Z,-2.3
2022-08-12T05:35:24.962Z,-16.9
2022-08-12T05:41:29.378Z,3.8
2022-08-12T05:43:31.147Z,23.5
2022-08-12T05:45:32.924Z,27.5
2022-08-12T05:47:40.706Z,42.4
2022-08-12T05:49:35.461Z,43.7
2022-08-12T05:51:39.989Z,39.4
2022-08-12T05:55:39.452Z,49
2022-08-12T05:57:40.365Z,76.19
2022-08-12T05:59:41.229Z,75.4
2022-08-12T06:02:11.197Z,74.69
2022-08-12T06:08:01.025Z,72.69
2022-08-12T06:12:05.315Z,71.19
2022-08-12T06:13:53.053Z,69.9
2022-08-12T06:15:51.704Z,69.8
2022-08-12T06:17:52.750Z,68.9
2022-08-12T06:20:22.668Z,67.9
2022-08-12T06:21:55.327Z,67
2022-08-12T06:23:56.554Z,66
2022-08-12T06:25:57.970Z,65.5
2022-08-12T06:28:07.128Z,64
2022-08-12T06:30:07.829Z,62.7
2022-08-12T06:32:01.796Z,61.1
2022-08-12T06:35:22.844Z,60.2
2022-08-12T06:36:04.161Z,59
2022-08-12T06:38:05.567Z,57.5
2022-08-12T06:40:06.637Z,55.8
2022-08-12T06:42:31.226Z,54.9
2022-08-12T06:44:09.519Z,53.1
2022-08-12T06:46:10.611Z,51.9
2022-08-12T06:48:11.692Z,50.2
2022-08-12T06:50:12.763Z,49.1
2022-08-12T06:52:14.411Z,48.1
2022-08-12T06:54:18.722Z,45.7
2022-08-12T06:56:16.806Z,43.4
2022-08-12T06:58:17.767Z,42.5
2022-08-12T07:00:18.922Z,41.6
2022-08-12T07:02:19.991Z,40.2
2022-08-12T07:04:36.650Z,37.5
2022-08-12T07:05:05.372Z,36.7
2022-08-12T07:09:08.064Z,33.5
2022-08-12T07:11:09.241Z,32.09
2022-08-12T07:13:10.174Z,28.8
2022-08-12T07:15:11.215Z,27.1
2022-08-12T07:17:12.410Z,25.4
2022-08-12T07:19:13.334Z,23.9
2022-08-12T07:21:14.532Z,23.6
2022-08-12T07:23:16.130Z,21.7
2022-08-12T07:25:17.092Z,21.3
2022-08-12T07:27:18.705Z,19.2
2022-08-12T07:31:20.569Z,17.7
2022-08-12T07:33:21.879Z,15
2022-08-12T07:35:23.398Z,15.2
2022-08-12T07:37:24.353Z,13
2022-08-12T07:39:25.433Z,12.8
2022-08-12T07:43:27.938Z,11.3
2022-08-12T07:45:29.131Z,9.39
2022-08-12T07:47:30.415Z,10.6
2022-08-12T07:49:31.813Z,9.3
2022-08-12T07:51:33.007Z,7.6
2022-08-12T07:53:34.753Z,7.9
2022-08-12T07:57:37.983Z,-25.6
2022-08-12T07:59:39.168Z,-25.8
2022-08-12T08:01:40.057Z,-25.6
2022-08-12T08:03:47.729Z,-25.2
2022-08-12T08:05:42.532Z,-25.5
2022-08-12T08:07:43.882Z,-25.7
2022-08-12T08:09:45.043Z,-25.6
2022-08-12T08:11:46.806Z,-25.4
2022-08-12T08:13:48.002Z,-25.7
2022-08-12T08:16:02.819Z,-25.7
2022-08-12T08:17:50.429Z,-25.4
2022-08-12T08:20:02.382Z,-25.7
2022-08-12T08:21:52.408Z,-25.7
2022-08-12T08:23:55.762Z,-25.4
2022-08-12T08:25:55.400Z,-25.7
2022-08-12T08:29:58.076Z,-25.5
2022-08-12T08:31:59.476Z,-25.5
2022-08-12T08:34:14.488Z,-25.5
2022-08-12T08:36:02.131Z,-25.6
2022-08-12T08:38:02.171Z,-25.5
2022-08-12T08:40:03.620Z,-25.5
2022-08-12T08:42:13.755Z,-25.9
2022-08-12T08:44:06.354Z,-25.3
2022-08-12T08:46:07.390Z,-25.5
2022-08-12T08:48:08.455Z,-25.4
2022-08-12T08:50:09.962Z,-25.7
2022-08-12T08:52:11.292Z,-25.6
2022-08-12T08:58:14.673Z,-25.4
2022-08-12T09:00:16.025Z,-25.7
2022-08-12T09:02:17.157Z,-25.5
2022-08-12T09:05:06.960Z,-25.7
2022-08-12T09:06:19.374Z,-25.4
2022-08-12T09:08:22.545Z,-25.5
2022-08-12T09:12:27.550Z,-25.5
2022-08-12T09:14:29.107Z,-25.4
2022-08-12T09:16:26.338Z,-25.6
2022-08-12T09:18:31.056Z,-25.5
2022-08-12T09:24:31.951Z,-25.4
2022-08-12T09:26:33.793Z,-25.6
2022-08-12T09:28:34.616Z,-25.5
2022-08-12T09:30:41.535Z,-25.3
2022-08-12T09:32:56.793Z,-25.7
2022-08-12T09:34:42.924Z,-25.5
2022-08-12T09:40:58.259Z,-25.5
2022-08-12T09:42:53.916Z,-25.5
2022-08-12T09:44:44.162Z,-25.7
2022-08-12T09:46:45.325Z,-25.7
2022-08-12T09:48:56.067Z,-25.9
2022-08-12T09:50:50.470Z,-25.8
2022-08-12T09:52:49.375Z,-25.8
2022-08-12T09:54:52.804Z,-25.7
2022-08-12T09:57:01.212Z,-25.8
2022-08-12T09:58:59.547Z,-25.4
2022-08-12T10:00:54.844Z,-25.5
2022-08-12T10:06:58.343Z,-25.6
2022-08-12T10:08:59.485Z,-25.4
2022-08-12T10:11:00.848Z,-25.5
2022-08-12T10:13:06.360Z,-25.3
2022-08-12T10:15:03.552Z,-25.6
2022-08-12T10:17:04.417Z,-25.9
2022-08-12T10:19:05.474Z,-25.6
2022-08-12T10:21:06.692Z,-25.9
2022-08-12T10:23:07.671Z,-25.5
2022-08-12T10:25:16.374Z,-25.2
2022-08-12T10:27:14.271Z,-25.7
2022-08-12T10:29:15.673Z,-25.4
2022-08-12T10:31:16.159Z,-25.7
2022-08-12T10:37:15.903Z,-25.6
2022-08-12T10:40:00.488Z,-25.5
2022-08-12T10:41:21.023Z,-25.5
2022-08-12T10:43:20.439Z,-25.4
2022-08-12T10:45:21.884Z,-25.7
2022-08-12T10:47:25.771Z,-25.6
2022-08-12T10:50:02.070Z,-25.3
2022-08-12T10:51:51.437Z,-25.7
2022-08-12T10:53:44.555Z,-25.5
2022-08-12T10:55:28.663Z,-25.3
2022-08-12T10:57:50.308Z,-25.6
2022-08-12T10:59:58.243Z,-25.7
2022-08-12T11:07:04.507Z,-25.5
2022-08-12T11:08:33.114Z,-25.6
2022-08-12T11:09:41.401Z,-25.5
2022-08-12T11:12:08.221Z,-25.7
2022-08-12T11:13:46.418Z,-25.4
2022-08-12T11:16:03.055Z,-25.5
2022-08-12T11:19:45.263Z,-25.7
2022-08-12T11:21:56.207Z,-25.6
2022-08-12T11:23:53.466Z,-25.5
2022-08-12T11:25:57.069Z,-25.7
2022-08-12T11:27:51.221Z,-25.6
2022-08-12T11:30:01.609Z,-25.5
2022-08-12T11:31:56.460Z,-25.4
2022-08-12T11:34:03.915Z,-25.8
2022-08-12T11:35:59.588Z,-25.5
2022-08-12T11:37:57.826Z,-25.5
2022-08-12T11:42:00.050Z,-25.4
2022-08-12T11:46:02.132Z,-25.4
2022-08-12T11:48:03.021Z,-25.3
2022-08-12T11:50:03.996Z,-25.5
2022-08-12T11:52:17.386Z,-25.5
2022-08-12T11:54:06.116Z,-25.3
2022-08-12T11:56:07.110Z,-25.5
2022-08-12T11:58:53.038Z,-25.5
2022-08-12T12:02:00.453Z,-25.2
2022-08-12T12:02:10.782Z,-25.7
2022-08-12T12:04:11.672Z,-25.8
2022-08-12T12:06:14.229Z,-25.4
2022-08-12T12:08:39.133Z,-25.7
2022-08-12T12:10:15.658Z,-25.8
2022-08-12T12:12:16.932Z,-25.5
2022-08-12T12:14:18.445Z,-25.3
2022-08-12T12:16:19.995Z,-25.6
2022-08-12T12:18:22.434Z,-25.7
2022-08-12T12:20:25.932Z,-25.3
2022-08-12T12:22:27.054Z,-25.6
2022-08-12T12:24:24.930Z,-25.6
2022-08-12T12:26:35.155Z,-25.7
2022-08-12T12:28:37.551Z,-25.6
2022-08-12T12:30:29.801Z,-25.4
2022-08-12T12:32:30.988Z,-25.5
2022-08-12T12:34:31.393Z,-25.6
2022-08-12T12:36:32.668Z,-25.5
2022-08-12T12:38:34.338Z,-25.7
2022-08-12T12:40:35.230Z,-25.3
2022-08-12T12:42:42.161Z,-25.5
2022-08-12T12:46:39.903Z,-25.7
2022-08-12T12:48:44.188Z,-25.3
2022-08-12T12:50:45.065Z,-25.7
2022-08-12T12:52:43.360Z,-25.5
2022-08-12T12:54:44.643Z,-25.6
2022-08-12T12:56:45.714Z,-25.7
2022-08-12T12:58:46.896Z,-25.9
2022-08-12T13:00:50.060Z,-25.5
2022-08-12T13:02:53.590Z,-25.7
2022-08-12T13:04:51.055Z,-25.5
2022-08-12T13:06:51.943Z,-25.6
2022-08-12T13:08:54.241Z,-25.6
2022-08-12T13:10:54.946Z,-25.5
2022-08-12T13:12:55.841Z,-25.5
2022-08-12T13:14:57.174Z,-25.6
2022-08-12T13:16:58.542Z,-25.4
2022-08-12T13:18:59.973Z,-25.5
2022-08-12T13:23:02.998Z,-25.5
2022-08-12T13:25:03.848Z,-25.5
2022-08-12T13:27:04.690Z,-25.6
2022-08-12T13:29:06.189Z,-25.4
2022-08-12T13:31:06.973Z,-25.6
2022-08-12T13:33:08.027Z,-25.5
2022-08-12T13:35:19.564Z,-25.3
2022-08-12T13:37:10.448Z,63.6
2022-08-12T13:45:16.025Z,60.6
2022-08-12T13:47:18.734Z,59.1
2022-08-12T13:49:53.476Z,57.1
2022-08-12T13:50:02.022Z,56.5
2022-08-12T13:54:06.139Z,53.2
2022-08-12T13:56:06.350Z,50.6
2022-08-12T13:58:12.588Z,47.1
2022-08-12T14:00:08.466Z,44.9
2022-08-12T14:02:09.680Z,41.7
2022-08-12T14:04:11.318Z,37.8
2022-08-12T14:06:15.308Z,36.2
2022-08-12T14:08:13.602Z,32.8
2022-08-12T14:10:16.217Z,30.4
2022-08-12T14:12:16.506Z,28.4
2022-08-12T14:14:17.714Z,27.9
2022-08-12T14:20:21.313Z,22.2
2022-08-12T14:22:25.942Z,19.1
2022-08-12T14:24:26.993Z,19.29
2022-08-12T14:26:25.709Z,17.2
2022-08-12T14:28:27.366Z,17
2022-08-12T14:30:29.121Z,16.9
2022-08-12T14:32:30.155Z,16.5
2022-08-12T14:34:31.267Z,13.9
2022-08-12T14:36:32.497Z,13.1
2022-08-12T14:38:33.835Z,12.2
2022-08-12T14:40:34.773Z,11.1
2022-08-12T14:42:36.339Z,8.1
2022-08-12T14:44:58.414Z,8.1
2022-08-12T14:46:39.299Z,-25.6
2022-08-12T14:48:40.390Z,-25.6
2022-08-12T14:51:01.337Z,-25.7
2022-08-12T14:56:58.154Z,-25.4
2022-08-12T14:57:19.682Z,-25.1
2022-08-12T14:58:51.609Z,-25.3
2022-08-12T15:00:50.904Z,-25.4
2022-08-12T15:04:51.521Z,-25.4
2022-08-12T15:08:53.933Z,-25.3
2022-08-12T15:10:55.456Z,-25.2
2022-08-12T15:12:56.349Z,-25.4
2022-08-12T15:14:57.811Z,-25.5
2022-08-12T15:19:00.491Z,-25.4
2022-08-12T15:21:04.473Z,-25.9
2022-08-12T15:23:02.849Z,-25.5
2022-08-12T15:25:05.461Z,-25.4
2022-08-12T15:27:08.807Z,-25.5
2022-08-12T15:29:07.339Z,-25.3
2022-08-12T15:31:09.474Z,-25.7
2022-08-12T15:33:12.485Z,-25.5
2022-08-12T15:35:12.102Z,-25.7
2022-08-12T15:37:12.194Z,-25.3
2022-08-12T15:39:16.627Z,-25.7
2022-08-12T15:41:14.616Z,-25.5
2022-08-12T15:43:35.764Z,-25.4
2022-08-12T15:47:18.667Z,-25.7
2022-08-12T15:51:20.988Z,-25.6
2022-08-12T15:53:22.307Z,-25.4
2022-08-12T15:55:23.686Z,-25.7
2022-08-12T15:57:24.942Z,-25.3
2022-08-12T16:03:45.547Z,-25.5
2022-08-12T16:06:13.473Z,-25.7
2022-08-12T16:07:32.565Z,-25.7
2022-08-12T16:09:56.920Z,-25.4
2022-08-12T16:11:41.126Z,-25.7
2022-08-12T16:13:35.643Z,-25.5
2022-08-12T16:15:36.412Z,-25.3
2022-08-12T16:18:14.432Z,-25.5
2022-08-12T16:20:01.956Z,-25.8
2022-08-12T16:21:50.769Z,-25.5
2022-08-12T16:23:52.314Z,-25.7
2022-08-12T16:26:03.475Z,-25.4
2022-08-12T16:27:43.644Z,-25.4
2022-08-12T16:29:52.721Z,-25.5
2022-08-12T16:31:46.709Z,-25.3
2022-08-12T16:33:56.730Z,-25.7
2022-08-12T16:35:49.372Z,-25.5
2022-08-12T16:40:00.431Z,-25.6
2022-08-12T16:41:52.404Z,-25.8
2022-08-12T16:43:53.785Z,-25.4
2022-08-12T16:46:04.862Z,-25.5
2022-08-12T16:47:57.860Z,-25.6
2022-08-12T16:49:57.275Z,-25.7
2022-08-12T16:51:58.338Z,-25.7
2022-08-12T16:53:59.766Z,-25.4
2022-08-12T16:56:01.345Z,-25.7
2022-08-12T16:58:02.332Z,-25.6
2022-08-12T17:00:03.388Z,-25.6
2022-08-12T17:02:04.697Z,-25.6
2022-08-12T17:04:08.461Z,-25.8
2022-08-12T17:06:06.458Z,-25.8
2022-08-12T17:08:07.326Z,-25.5
2022-08-12T17:10:08.576Z,-25.6
2022-08-12T17:12:10.286Z,-25.4
2022-08-12T17:14:11.838Z,-25.6
2022-08-12T17:16:14.475Z,-25.8
2022-08-12T17:18:15.581Z,-25.5
2022-08-12T17:20:30.085Z,-25.5
2022-08-12T17:22:16.886Z,-25.7
2022-08-12T17:24:17.753Z,-25.4
2022-08-12T17:26:19.206Z,-25.5
2022-08-12T17:28:20.683Z,-25.6
2022-08-12T17:32:28.011Z,-25.8
2022-08-12T17:34:24.377Z,-25.6
2022-08-12T17:36:25.887Z,-25.6
2022-08-12T17:38:27.149Z,-25.5
2022-08-12T17:40:35.479Z,-25.5
2022-08-12T17:44:30.856Z,-25.5
2022-08-12T17:46:33.452Z,-25.5
2022-08-12T17:48:34.570Z,-25.7
2022-08-12T17:50:35.070Z,-25.5
2022-08-12T17:52:36.367Z,-25.6
2022-08-12T17:54:37.669Z,-25.4
2022-08-12T17:56:38.517Z,-25.7
2022-08-12T17:58:39.720Z,-25.4
2022-08-12T18:00:42.121Z,-25.4
2022-08-12T18:02:42.176Z,-25.6
2022-08-12T18:05:04.686Z,-25.5
2022-08-12T18:06:44.872Z,-25.7
2022-08-12T18:08:53.844Z,-25.8
2022-08-12T18:10:52.899Z,-25.6
2022-08-12T18:12:51.110Z,-25.7
2022-08-12T18:16:50.725Z,-25.4
2022-08-12T18:18:51.869Z,-25.6
2022-08-12T18:22:55.789Z,-25.6
2022-08-12T18:25:00.956Z,-25.7
2022-08-12T18:26:57.608Z,-25.6
2022-08-12T18:31:03.225Z,-25.6
2022-08-12T18:33:03.347Z,-25.6
2022-08-12T18:35:10.453Z,-25.5
2022-08-12T18:37:04.774Z,-25.6
2022-08-12T18:41:06.978Z,-25.5
2022-08-12T18:43:08.173Z,-25.3
2022-08-12T18:45:09.488Z,-26.1
2022-08-12T18:47:13.499Z,-25.8
2022-08-12T18:49:17.296Z,-25.7
2022-08-12T18:51:21.795Z,-25.4
2022-08-12T18:53:16.737Z,-25.5
2022-08-12T18:55:16.397Z,-25.6
2022-08-12T18:57:20.083Z,-25.6
2022-08-12T18:59:59.420Z,-25.7
2022-08-12T19:02:17.941Z,-25.4
2022-08-12T19:03:23.482Z,-25.8
2022-08-12T19:05:22.354Z,-25.9
2022-08-12T19:09:25.806Z,-25.9
2022-08-12T19:11:26.883Z,-25.6
2022-08-12T19:13:33.117Z,-25.3
2022-08-12T19:15:29.728Z,-25.9
2022-08-12T19:17:47.785Z,-25.4
2022-08-12T19:19:37.598Z,-25.6
2022-08-12T19:21:33.448Z,-25.4
2022-08-12T19:27:37.799Z,-25.7
2022-08-12T19:29:39.648Z,-25.5
2022-08-12T19:31:44.482Z,-25.8
2022-08-12T19:33:42.794Z,-25.6
2022-08-12T19:36:07.190Z,-25.7
2022-08-12T19:38:03.267Z,-25.6
2022-08-12T19:40:08.443Z,-25.6
2022-08-12T19:41:55.799Z,-25.5
2022-08-12T19:43:59.339Z,-25.4
2022-08-12T19:45:50.512Z,-25.4
2022-08-12T19:47:52.192Z,-25.3
2022-08-12T19:49:53.081Z,-25.5
2022-08-12T19:51:54.631Z,-25.5
2022-08-12T19:53:57.149Z,-25.5
2022-08-12T19:55:57.709Z,-25.7
2022-08-12T19:58:01.230Z,-25.4
2022-08-12T20:00:03.854Z,-25.6
2022-08-12T20:02:02.890Z,-25.7
2022-08-12T20:04:03.404Z,-25.5
2022-08-12T20:06:09.229Z,-25.7
2022-08-12T20:08:06.197Z,-25.7
2022-08-12T20:10:08.128Z,-25.4
2022-08-12T20:12:17.875Z,-25.7
2022-08-12T20:14:10.801Z,-25.6
2022-08-12T20:16:32.338Z,-25.8
2022-08-12T20:18:19.306Z,-25.6
2022-08-12T20:24:19.050Z,-25.8
2022-08-12T20:26:18.897Z,-25.8
2022-08-12T20:28:19.939Z,-25.8
2022-08-12T20:30:35.292Z,-25.7
2022-08-12T20:32:23.517Z,-25.5
2022-08-12T20:34:23.801Z,-25.5
2022-08-12T20:37:10.228Z,-25.6
2022-08-12T20:39:17.741Z,-25.4
2022-08-12T20:41:16.884Z,-25.6
2022-08-12T20:43:14.217Z,-25.7
2022-08-12T20:45:15.015Z,-25.5
2022-08-12T20:47:18.567Z,-25.6
2022-08-12T20:49:17.457Z,-25.7
2022-08-12T20:51:19.030Z,-25.5
2022-08-12T20:53:27.653Z,-25.8
2022-08-12T20:59:24.032Z,-25.5
2022-08-12T21:01:25.914Z,-25.6
2022-08-12T21:03:26.785Z,-25.9
2022-08-12T21:06:10.459Z,-25.7
2022-08-12T21:07:34.078Z,-25.5
2022-08-12T21:09:31.074Z,-25.6
2022-08-12T21:11:32.644Z,-25.7
2022-08-12T21:13:39.046Z,-25.6
2022-08-12T21:15:53.724Z,-25.4
2022-08-12T21:18:00.476Z,-25.7
2022-08-12T21:19:51.888Z,-25.6
2022-08-12T21:21:40.571Z,-25.4
2022-08-12T21:23:41.648Z,-25.6
2022-08-12T21:25:44.852Z,-25.8
2022-08-12T21:27:58.339Z,-25.7
2022-08-12T21:29:50.194Z,-25.4
2022-08-12T21:32:38.225Z,-25.8
2022-08-12T21:34:06.878Z,-25.7
2022-08-12T21:35:50.379Z,-25.7
2022-08-12T21:37:52.974Z,-25.6
2022-08-12T21:43:54.697Z,-25.5
2022-08-12T21:46:00.165Z,-25.7
2022-08-12T21:47:57.168Z,-25.8
2022-08-12T21:50:02.717Z,-25.4
2022-08-12T21:52:00.056Z,-25.8
2022-08-12T21:54:06.551Z,-25.7
2022-08-12T21:56:03.250Z,-25.8
2022-08-12T21:58:07.855Z,-25.2
2022-08-12T22:00:09.819Z,-25.6
2022-08-12T22:02:07.056Z,-25.5
2022-08-12T22:04:11.692Z,-25.4
2022-08-12T22:06:09.565Z,-25.7
2022-08-12T22:08:11.358Z,-25.6
2022-08-12T22:10:12.886Z,-25.7
2022-08-12T22:12:17.718Z,-25.8
2022-08-12T22:14:18.171Z,-25.6
2022-08-12T22:16:17.639Z,-25.7
2022-08-12T22:18:18.773Z,-25.4
2022-08-12T22:20:21.774Z,-25.6
2022-08-12T22:22:21.190Z,-25.4
2022-08-12T22:24:26.191Z,-25.5
2022-08-12T22:26:29.040Z,-25.5
2022-08-12T22:28:24.885Z,-25.6
2022-08-12T22:30:25.660Z,-25.6
2022-08-12T22:32:30.037Z,-25.7
2022-08-12T22:34:29.391Z,-25.8
2022-08-12T22:36:30.099Z,-25.5
2022-08-12T22:38:31.014Z,-25.5
2022-08-12T22:40:32.893Z,-25.3
2022-08-12T22:42:34.016Z,-25.6
2022-08-12T22:44:52.512Z,-25.6
2022-08-12T22:46:36.374Z,-25.5
2022-08-12T22:48:37.841Z,-25.6
2022-08-12T22:50:39.586Z,-25.6
2022-08-12T22:52:41.077Z,-25.4
2022-08-12T22:54:46.249Z,-25.5
2022-08-12T22:56:43.612Z,-25.4
2022-08-12T22:58:44.690Z,-25.4
2022-08-12T23:00:45.838Z,-25.7
2022-08-12T23:02:47.283Z,-25.7
2022-08-12T23:04:48.779Z,-25.7
2022-08-12T23:06:50.209Z,-25.6
2022-08-12T23:08:51.614Z,-25.7
2022-08-12T23:10:53.332Z,-25.8
2022-08-12T23:12:54.535Z,-25.8
2022-08-12T23:14:56.102Z,-25.4
2022-08-12T23:16:57.123Z,-25.6
2022-08-12T23:18:58.777Z,-25.7
2022-08-12T23:21:00.199Z,-25.7
2022-08-12T23:23:02.672Z,-25.5
2022-08-12T23:25:02.592Z,-25.6
2022-08-12T23:27:03.842Z,-25.5
2022-08-12T23:29:12.891Z,-25.6
2022-08-12T23:31:06.324Z,-25.6
2022-08-12T23:33:13.304Z,-25.4
2022-08-12T23:35:09.270Z,-25.5
2022-08-12T23:37:10.290Z,-25.6
2022-08-12T23:40:07.142Z,-25.9
2022-08-12T23:43:14.788Z,-25.8
2022-08-12T23:47:17.594Z,-25.7
2022-08-12T23:49:27.218Z,-25.6
2022-08-12T23:51:21.934Z,-25.7
2022-08-12T23:53:22.809Z,-25.6
2022-08-12T23:55:25.267Z,-25.6
2022-08-12T23:57:24.481Z,-25.7
2022-08-12T23:59:26.378Z,-25.7
